createdAt,value
2022-11-05T00:02:38.707Z,99.90
2022-11-05T00:05:35.651Z,99.90
2022-11-05T00:08:26.441Z,99.90
2022-11-05T00:10:58.440Z,99.90
2022-11-05T00:13:48.860Z,99.90
2022-11-05T00:16:39.278Z,99.90
2022-11-05T00:19:11.385Z,99.90
2022-11-05T00:22:01.768Z,99.90
2022-11-05T00:24:52.133Z,99.90
2022-11-05T00:27:24.030Z,99.90
2022-11-05T00:29:55.877Z,99.80
2022-11-05T00:32:27.768Z,99.80
2022-11-05T00:34:59.872Z,99.70
2022-11-05T00:37:31.834Z,99.60
2022-11-05T00:40:04.890Z,99.50
2022-11-05T00:42:55.427Z,99.40
2022-11-05T00:45:28.692Z,99.40
2022-11-05T00:48:18.963Z,99.40
2022-11-05T00:50:50.895Z,99.30
2022-11-05T00:53:22.823Z,99.30
2022-11-05T00:55:54.757Z,99.20
2022-11-05T00:58:29.109Z,99.20
2022-11-05T01:01:02.347Z,99.20
2022-11-05T01:03:37.613Z,99.00
2022-11-05T01:06:17.219Z,99.00
2022-11-05T01:08:49.120Z,99.30
2022-11-05T01:11:33.530Z,99.00
2022-11-05T01:14:12.621Z,99.00
2022-11-05T01:16:45.551Z,98.90
2022-11-05T01:19:17.503Z,98.90
2022-11-05T01:21:49.385Z,98.80
2022-11-05T01:24:21.315Z,98.70
2022-11-05T01:26:53.299Z,98.70
2022-11-05T01:29:25.322Z,98.70
2022-11-05T01:31:57.262Z,98.70
2022-11-05T01:34:29.223Z,98.60
2022-11-05T01:37:01.119Z,98.70
2022-11-05T01:39:33.033Z,98.70
2022-11-05T01:42:15.421Z,98.70
2022-11-05T01:45:10.074Z,98.80
2022-11-05T01:48:12.921Z,98.80
2022-11-05T01:51:00.743Z,98.80
2022-11-05T01:54:03.072Z,98.80
2022-11-05T01:56:58.151Z,99.00
2022-11-05T01:59:41.379Z,99.10
2022-11-05T02:02:13.385Z,99.20
2022-11-05T02:04:54.078Z,99.20
2022-11-05T02:07:28.867Z,99.20
2022-11-05T02:10:08.117Z,99.20
2022-11-05T02:12:44.926Z,99.30
2022-11-05T02:15:30.220Z,99.30
2022-11-05T02:18:51.796Z,99.30
2022-11-05T02:22:01.584Z,99.30
2022-11-05T02:24:46.967Z,99.30
2022-11-05T02:27:52.314Z,99.30
2022-11-05T02:30:44.936Z,99.60
2022-11-05T02:33:48.102Z,99.40
2022-11-05T02:36:42.062Z,99.40
2022-11-05T02:39:44.453Z,99.40
2022-11-05T02:42:44.158Z,99.40
2022-11-05T02:45:55.344Z,99.40
2022-11-05T02:48:55.663Z,99.40
2022-11-05T02:51:51.642Z,99.40
2022-11-05T02:54:56.999Z,99.40
2022-11-05T02:57:30.762Z,99.50
2022-11-05T03:00:43.879Z,99.90
2022-11-05T03:03:43.026Z,99.90
2022-11-05T03:06:39.634Z,99.90
2022-11-05T03:09:39.304Z,99.90
2022-11-05T03:12:48.688Z,99.90
2022-11-05T03:15:40.754Z,99.90
2022-11-05T03:18:21.643Z,99.90
2022-11-05T03:21:11.602Z,99.90
2022-11-05T03:24:12.350Z,99.90
2022-11-05T03:26:54.328Z,99.90
2022-11-05T03:29:34.087Z,99.90
2022-11-05T03:32:09.837Z,99.90
2022-11-05T03:34:53.176Z,99.90
2022-11-05T03:37:31.839Z,99.90
2022-11-05T03:40:09.378Z,99.90
2022-11-05T03:42:47.549Z,99.90
2022-11-05T03:45:28.489Z,99.90
2022-11-05T03:48:03.807Z,99.90
2022-11-05T03:50:44.756Z,99.90
2022-11-05T03:53:30.736Z,99.90
2022-11-05T03:56:20.694Z,99.90
2022-11-05T03:58:58.861Z,99.90
2022-11-05T04:01:32.464Z,99.90
2022-11-05T04:04:06.951Z,99.90
2022-11-05T04:06:57.824Z,99.90
2022-11-05T04:09:48.438Z,99.90
2022-11-05T04:12:39.091Z,99.90
2022-11-05T04:15:10.992Z,99.90
2022-11-05T04:17:42.919Z,99.90
2022-11-05T04:20:33.645Z,99.90
2022-11-05T04:23:26.033Z,99.90
2022-11-05T04:25:57.904Z,99.90
2022-11-05T04:28:49.723Z,99.90
2022-11-05T04:31:21.610Z,99.90
2022-11-05T04:33:53.508Z,99.90
2022-11-05T04:36:25.476Z,99.90
2022-11-05T04:38:57.363Z,99.90
2022-11-05T04:41:29.342Z,99.90
2022-11-05T04:44:01.272Z,99.90
2022-11-05T04:46:33.196Z,99.90
2022-11-05T04:49:05.262Z,99.90
2022-11-05T04:51:37.197Z,99.90
2022-11-05T04:54:09.286Z,99.90
2022-11-05T04:56:41.244Z,99.90
2022-11-05T04:59:13.139Z,99.90
2022-11-05T05:01:45.063Z,99.90
2022-11-05T05:04:17.041Z,99.90
2022-11-05T05:06:48.946Z,99.90
2022-11-05T05:09:20.911Z,99.90
2022-11-05T05:11:52.791Z,99.90
2022-11-05T05:14:24.885Z,99.90
2022-11-05T05:16:56.896Z,99.90
2022-11-05T05:19:29.022Z,99.90
2022-11-05T05:22:00.908Z,99.90
2022-11-05T05:24:32.771Z,99.90
2022-11-05T05:27:04.683Z,99.90
2022-11-05T05:29:36.601Z,99.90
2022-11-05T05:32:08.589Z,99.90
2022-11-05T05:34:40.575Z,99.90
2022-11-05T05:37:12.515Z,99.90
2022-11-05T05:39:45.978Z,99.90
2022-11-05T05:42:18.063Z,99.90
2022-11-05T05:44:50.077Z,99.90
2022-11-05T05:47:22.033Z,99.90
2022-11-05T05:49:53.945Z,99.90
2022-11-05T05:52:25.814Z,99.90
2022-11-05T05:54:57.755Z,99.90
2022-11-05T05:57:29.697Z,99.90
2022-11-05T06:00:02.021Z,99.90
2022-11-05T06:02:34.033Z,99.90
2022-11-05T06:05:06.355Z,99.90
2022-11-05T06:07:38.254Z,99.90
2022-11-05T06:10:10.273Z,99.90
2022-11-05T06:12:42.177Z,99.90
2022-11-05T06:15:14.180Z,99.90
2022-11-05T06:17:46.580Z,99.90
2022-11-05T06:20:18.512Z,99.90
2022-11-05T06:22:57.871Z,99.90
2022-11-05T06:25:29.883Z,99.90
2022-11-05T06:28:01.883Z,99.90
2022-11-05T06:30:33.752Z,99.90
2022-11-05T06:33:05.903Z,99.90
2022-11-05T06:35:37.851Z,99.90
2022-11-05T06:38:09.725Z,99.90
2022-11-05T06:40:41.740Z,99.90
2022-11-05T06:43:14.155Z,99.90
2022-11-05T06:45:46.376Z,99.90
2022-11-05T06:48:18.325Z,99.90
2022-11-05T06:50:50.223Z,99.90
2022-11-05T06:53:22.463Z,99.90
2022-11-05T06:55:54.433Z,99.90
2022-11-05T06:58:27.361Z,99.90
2022-11-05T07:01:09.129Z,99.90
2022-11-05T07:03:41.053Z,99.90
2022-11-05T07:06:13.062Z,99.90
2022-11-05T07:08:45.048Z,99.90
2022-11-05T07:11:16.966Z,99.90
2022-11-05T07:13:48.841Z,99.90
2022-11-05T07:16:20.726Z,99.90
2022-11-05T07:18:52.949Z,99.90
2022-11-05T07:21:25.244Z,99.90
2022-11-05T07:23:57.106Z,99.90
2022-11-05T07:26:34.251Z,99.90
2022-11-05T07:29:06.858Z,99.90
2022-11-05T07:31:38.741Z,99.90
2022-11-05T07:34:10.642Z,99.90
2022-11-05T07:36:42.574Z,99.90
2022-11-05T07:39:14.514Z,99.90
2022-11-05T07:41:46.398Z,99.90
2022-11-05T07:44:18.387Z,99.90
2022-11-05T07:46:51.181Z,99.90
2022-11-05T07:49:23.952Z,99.90
2022-11-05T07:51:55.858Z,99.90
2022-11-05T07:54:27.798Z,99.90
2022-11-05T07:57:01.413Z,99.90
2022-11-05T07:59:33.297Z,99.90
2022-11-05T08:02:05.510Z,99.90
2022-11-05T08:04:38.478Z,99.90
2022-11-05T08:07:10.399Z,99.90
2022-11-05T08:09:42.472Z,99.90
2022-11-05T08:12:14.368Z,99.90
2022-11-05T08:14:46.218Z,99.90
2022-11-05T08:17:18.674Z,99.90
2022-11-05T08:19:50.662Z,99.90
2022-11-05T08:22:22.629Z,99.90
2022-11-05T08:24:54.563Z,99.90
2022-11-05T08:27:26.539Z,99.90
2022-11-05T08:29:58.461Z,99.90
2022-11-05T08:32:30.320Z,99.90
2022-11-05T08:35:02.500Z,99.90
2022-11-05T08:37:34.417Z,99.90
2022-11-05T08:40:07.336Z,99.90
2022-11-05T08:42:39.309Z,99.90
2022-11-05T08:45:11.231Z,99.90
2022-11-05T08:47:43.188Z,99.90
2022-11-05T08:50:15.179Z,99.90
2022-11-05T08:52:47.054Z,99.90
2022-11-05T08:55:19.087Z,99.90
2022-11-05T08:58:18.328Z,99.90
2022-11-05T09:00:50.434Z,99.90
2022-11-05T09:03:22.483Z,99.80
2022-11-05T09:05:54.392Z,99.80
2022-11-05T09:08:26.387Z,99.80
2022-11-05T09:10:58.559Z,99.70
2022-11-05T09:13:30.510Z,99.60
2022-11-05T09:16:02.690Z,99.40
2022-11-05T09:18:34.632Z,99.60
2022-11-05T09:21:06.573Z,99.70
2022-11-05T09:23:39.376Z,99.80
2022-11-05T09:26:14.100Z,99.70
2022-11-05T09:28:45.999Z,99.40
2022-11-05T09:31:17.873Z,99.00
2022-11-05T09:33:49.956Z,98.80
2022-11-05T09:36:21.844Z,98.70
2022-11-05T09:38:53.746Z,98.70
2022-11-05T09:41:39.958Z,98.70
2022-11-05T09:44:47.903Z,98.60
2022-11-05T09:47:28.683Z,98.20
2022-11-05T09:50:09.151Z,98.30
2022-11-05T09:52:41.191Z,98.00
2022-11-05T09:55:31.977Z,97.80
2022-11-05T09:58:22.130Z,97.80
2022-11-05T10:00:58.498Z,97.90
2022-11-05T10:03:31.564Z,97.80
2022-11-05T10:06:09.724Z,97.70
2022-11-05T10:08:50.392Z,97.60
2022-11-05T10:11:34.212Z,97.30
2022-11-05T10:14:20.907Z,97.10
2022-11-05T10:17:12.393Z,97.10
2022-11-05T10:20:11.098Z,97.20
2022-11-05T10:22:48.294Z,97.20
2022-11-05T10:25:27.518Z,97.30
2022-11-05T10:28:00.299Z,97.30
2022-11-05T10:30:32.856Z,97.40
2022-11-05T10:33:07.366Z,97.50
2022-11-05T10:35:50.160Z,97.50
2022-11-05T10:38:22.126Z,97.50
2022-11-05T10:41:06.180Z,97.50
2022-11-05T10:43:59.474Z,97.60
2022-11-05T10:46:56.379Z,97.70
2022-11-05T10:49:36.996Z,97.80
2022-11-05T10:52:39.593Z,97.90
2022-11-05T10:55:24.948Z,97.90
2022-11-05T10:58:11.716Z,98.00
2022-11-05T11:01:06.336Z,98.00
2022-11-05T11:03:45.282Z,98.10
2022-11-05T11:06:29.321Z,98.10
2022-11-05T11:09:08.602Z,98.20
2022-11-05T11:11:42.905Z,98.20
2022-11-05T11:14:14.779Z,98.30
2022-11-05T11:16:53.393Z,98.30
2022-11-05T11:19:34.822Z,98.30
2022-11-05T11:22:06.646Z,98.30
2022-11-05T11:24:45.286Z,98.30
2022-11-05T11:27:33.327Z,98.30
2022-11-05T11:30:06.936Z,98.30
2022-11-05T11:32:40.149Z,98.40
2022-11-05T11:35:24.907Z,98.40
2022-11-05T11:38:00.887Z,98.30
2022-11-05T11:40:38.440Z,98.20
2022-11-05T11:43:29.033Z,97.90
2022-11-05T11:46:06.050Z,97.90
2022-11-05T11:48:41.209Z,97.90
2022-11-05T11:51:30.964Z,98.00
2022-11-05T11:54:05.113Z,97.60
2022-11-05T11:56:46.980Z,97.60
2022-11-05T11:59:53.869Z,97.20
2022-11-05T12:02:40.660Z,97.00
2022-11-05T12:05:34.161Z,96.80
2022-11-05T12:08:26.158Z,96.30
2022-11-05T12:11:18.300Z,96.20
2022-11-05T12:14:10.278Z,95.90
2022-11-05T12:17:10.870Z,95.80
2022-11-05T12:20:09.004Z,95.50
2022-11-05T12:23:20.780Z,95.50
2022-11-05T12:26:30.298Z,95.50
2022-11-05T12:29:49.147Z,95.40
2022-11-05T12:32:49.466Z,94.70
2022-11-05T12:35:57.987Z,95.00
2022-11-05T12:39:14.685Z,94.90
2022-11-05T12:42:27.492Z,95.00
2022-11-05T12:45:33.016Z,94.80
2022-11-05T12:48:36.940Z,94.90
2022-11-05T12:51:38.825Z,94.90
2022-11-05T12:54:47.852Z,94.90
2022-11-05T12:57:22.939Z,94.90
2022-11-05T13:00:19.232Z,95.00
2022-11-05T13:02:53.814Z,95.20
2022-11-05T13:05:49.563Z,95.20
2022-11-05T13:08:39.283Z,95.20
2022-11-05T13:11:28.174Z,95.30
2022-11-05T13:14:17.644Z,95.20
2022-11-05T13:17:30.929Z,95.60
2022-11-05T13:20:17.475Z,95.20
2022-11-05T13:23:00.749Z,95.00
2022-11-05T13:25:41.978Z,95.00
2022-11-05T13:28:39.607Z,94.80
2022-11-05T13:31:18.591Z,94.60
2022-11-05T13:33:53.065Z,94.60
2022-11-05T13:37:17.575Z,94.40
2022-11-05T13:39:54.744Z,94.20
2022-11-05T13:42:45.224Z,94.30
2022-11-05T13:45:45.116Z,94.20
2022-11-05T13:49:01.495Z,94.30
2022-11-05T13:51:54.743Z,94.50
2022-11-05T13:55:10.848Z,94.60
2022-11-05T13:57:48.824Z,94.70
2022-11-05T14:00:27.767Z,94.70
2022-11-05T14:03:18.104Z,94.70
2022-11-05T14:06:00.425Z,94.70
2022-11-05T14:08:45.933Z,94.80
2022-11-05T14:11:40.585Z,94.80
2022-11-05T14:14:23.792Z,94.90
2022-11-05T14:17:27.920Z,95.00
2022-11-05T14:20:02.878Z,95.00
2022-11-05T14:22:40.942Z,95.00
2022-11-05T14:25:19.009Z,95.10
2022-11-05T14:27:54.562Z,95.10
2022-11-05T14:30:46.774Z,95.10
2022-11-05T14:33:37.723Z,95.60
2022-11-05T14:36:21.652Z,95.30
2022-11-05T14:39:04.301Z,95.30
2022-11-05T14:41:56.467Z,95.30
2022-11-05T14:44:31.182Z,95.30
2022-11-05T14:47:21.182Z,95.30
2022-11-05T14:50:07.754Z,95.40
2022-11-05T14:52:50.370Z,95.50
2022-11-05T14:55:40.532Z,95.50
2022-11-05T14:58:45.832Z,95.50
2022-11-05T15:01:35.804Z,95.60
2022-11-05T15:04:32.491Z,95.60
2022-11-05T15:07:04.406Z,95.60
2022-11-05T15:09:55.852Z,95.60
2022-11-05T15:12:48.901Z,95.60
2022-11-05T15:15:32.175Z,95.60
2022-11-05T15:18:38.758Z,95.60
2022-11-05T15:21:18.188Z,95.70
2022-11-05T15:23:58.978Z,95.70
2022-11-05T15:26:53.839Z,95.90
2022-11-05T15:29:30.478Z,95.90
2022-11-05T15:32:02.818Z,95.90
2022-11-05T15:34:35.899Z,96.00
2022-11-05T15:37:10.820Z,96.00
2022-11-05T15:39:47.717Z,96.10
2022-11-05T15:42:26.042Z,96.10
2022-11-05T15:45:00.231Z,96.10
2022-11-05T15:47:35.338Z,96.10
2022-11-05T15:50:15.948Z,96.20
2022-11-05T15:52:54.791Z,96.20
2022-11-05T15:55:27.035Z,96.20
2022-11-05T15:58:09.947Z,96.30
2022-11-05T16:00:48.452Z,96.30
2022-11-05T16:03:30.846Z,96.30
2022-11-05T16:06:03.224Z,96.30
2022-11-05T16:08:36.554Z,96.30
2022-11-05T16:11:08.502Z,96.40
2022-11-05T16:13:42.002Z,96.60
2022-11-05T16:16:13.848Z,96.60
2022-11-05T16:18:46.041Z,96.60
2022-11-05T16:21:22.738Z,96.50
2022-11-05T16:24:00.666Z,96.40
2022-11-05T16:29:38.233Z,96.50
2022-11-05T16:32:28.606Z,96.50
2022-11-05T16:35:07.193Z,96.60
2022-11-05T16:37:41.742Z,96.60
2022-11-05T16:40:20.838Z,96.70
2022-11-05T16:42:54.647Z,96.60
2022-11-05T16:45:29.512Z,96.60
2022-11-05T16:48:01.448Z,96.70
2022-11-05T16:50:34.069Z,96.80
2022-11-05T16:53:06.694Z,96.80
2022-11-05T16:55:42.144Z,96.90
2022-11-05T16:58:26.108Z,96.90
2022-11-05T17:01:08.480Z,97.00
2022-11-05T17:03:40.443Z,97.00
2022-11-05T17:06:14.682Z,97.10
2022-11-05T17:08:48.215Z,97.10
2022-11-05T17:11:21.444Z,97.20
2022-11-05T17:13:53.359Z,97.20
2022-11-05T17:16:26.714Z,97.30
2022-11-05T17:18:58.684Z,98.10
2022-11-05T17:21:30.602Z,97.80
2022-11-05T17:24:02.736Z,97.70
2022-11-05T17:26:34.948Z,97.70
2022-11-05T17:29:07.340Z,98.10
2022-11-05T17:31:40.975Z,97.70
2022-11-05T17:34:13.016Z,97.80
2022-11-05T17:36:44.909Z,97.70
2022-11-05T17:39:16.954Z,97.80
2022-11-05T17:41:48.969Z,97.70
2022-11-05T17:44:20.937Z,97.70
2022-11-05T17:46:52.883Z,97.80
2022-11-05T17:49:24.786Z,97.90
2022-11-05T17:51:56.729Z,98.30
2022-11-05T17:54:28.680Z,98.00
2022-11-05T17:57:02.335Z,98.00
2022-11-05T17:59:34.271Z,97.90
2022-11-05T18:02:07.063Z,97.90
2022-11-05T18:04:39.991Z,97.90
2022-11-05T18:07:11.958Z,97.90
2022-11-05T18:09:43.845Z,97.90
2022-11-05T18:12:15.730Z,97.90
2022-11-05T18:14:47.627Z,97.90
2022-11-05T18:17:19.505Z,97.80
2022-11-05T18:19:51.416Z,97.80
2022-11-05T18:22:23.486Z,97.80
2022-11-05T18:24:55.959Z,97.90
2022-11-05T18:27:27.912Z,97.90
2022-11-05T18:29:59.841Z,97.90
2022-11-05T18:32:32.049Z,97.90
2022-11-05T18:35:04.400Z,97.90
2022-11-05T18:37:38.898Z,98.00
2022-11-05T18:40:11.822Z,98.00
2022-11-05T18:42:43.794Z,98.00
2022-11-05T18:45:15.805Z,98.00
2022-11-05T18:47:47.726Z,98.00
2022-11-05T18:50:19.974Z,97.90
2022-11-05T18:52:51.911Z,98.00
2022-11-05T18:55:25.133Z,97.90
2022-11-05T18:57:57.330Z,97.90
2022-11-05T19:00:29.270Z,98.00
2022-11-05T19:03:01.539Z,98.00
2022-11-05T19:05:34.649Z,98.00
2022-11-05T19:08:07.067Z,98.00
2022-11-05T19:10:40.733Z,98.00
2022-11-05T19:13:12.650Z,98.00
2022-11-05T19:15:44.626Z,98.00
2022-11-05T19:18:16.620Z,98.00
2022-11-05T19:20:48.541Z,98.00
2022-11-05T19:23:20.387Z,98.00
2022-11-05T19:25:52.354Z,98.00
2022-11-05T19:28:24.223Z,98.00
2022-11-05T19:30:56.117Z,98.10
2022-11-05T19:33:28.634Z,98.00
2022-11-05T19:36:05.878Z,98.00
2022-11-05T19:38:38.266Z,98.00
2022-11-05T19:41:14.183Z,98.00
2022-11-05T19:43:46.873Z,98.10
2022-11-05T19:46:20.800Z,98.10
2022-11-05T19:48:53.474Z,98.10
2022-11-05T19:51:30.204Z,98.20
2022-11-05T19:54:03.951Z,98.20
2022-11-05T19:56:38.378Z,98.30
2022-11-05T19:59:12.074Z,98.20
2022-11-05T20:01:44.090Z,98.30
2022-11-05T20:04:16.112Z,98.30
2022-11-05T20:06:48.502Z,98.70
2022-11-05T20:09:22.268Z,98.40
2022-11-05T20:11:56.718Z,98.40
2022-11-05T20:14:29.748Z,98.40
2022-11-05T20:17:01.705Z,98.40
2022-11-05T20:19:33.758Z,98.40
2022-11-05T20:22:06.003Z,98.50
2022-11-05T20:24:37.979Z,98.50
2022-11-05T20:27:10.004Z,98.60
2022-11-05T20:29:43.059Z,98.70
2022-11-05T20:32:15.153Z,98.70
2022-11-05T20:34:47.102Z,98.80
2022-11-05T20:37:19.195Z,98.70
2022-11-05T20:39:51.060Z,98.70
2022-11-05T20:42:23.109Z,98.80
2022-11-05T20:44:54.994Z,98.80
2022-11-05T20:47:26.931Z,98.80
2022-11-05T20:50:00.031Z,98.80
2022-11-05T20:52:31.984Z,98.80
2022-11-05T20:55:05.238Z,98.80
2022-11-05T20:57:38.529Z,98.80
2022-11-05T21:00:11.837Z,98.80
2022-11-05T21:02:43.894Z,98.90
2022-11-05T21:05:15.923Z,98.80
2022-11-05T21:07:47.805Z,98.80
2022-11-05T21:10:19.772Z,98.90
2022-11-05T21:12:51.731Z,98.90
2022-11-05T21:15:24.340Z,99.00
2022-11-05T21:17:56.251Z,99.00
2022-11-05T21:20:28.413Z,99.00
2022-11-05T21:23:00.293Z,99.00
2022-11-05T21:25:32.262Z,99.10
2022-11-05T21:28:04.583Z,99.10
2022-11-05T21:30:38.838Z,99.10
2022-11-05T21:33:11.801Z,99.20
2022-11-05T21:35:48.336Z,99.20
2022-11-05T21:38:20.731Z,99.20
2022-11-05T21:40:52.678Z,99.20
2022-11-05T21:43:24.616Z,99.60
2022-11-05T21:46:01.235Z,99.30
2022-11-05T21:48:34.005Z,99.30
2022-11-05T21:51:25.594Z,99.30
2022-11-05T21:54:16.333Z,99.40
2022-11-05T21:57:10.855Z,99.40
2022-11-05T21:59:48.780Z,99.40
2022-11-05T22:02:23.719Z,99.40
2022-11-05T22:04:59.834Z,99.40
2022-11-05T22:07:36.239Z,99.40
2022-11-05T22:10:16.058Z,99.40
2022-11-05T22:12:48.345Z,99.40
2022-11-05T22:15:20.212Z,99.50
2022-11-05T22:17:52.267Z,99.50
2022-11-05T22:20:24.195Z,99.60
2022-11-05T22:22:56.147Z,99.80
2022-11-05T22:25:28.049Z,99.60
2022-11-05T22:27:59.910Z,99.60
2022-11-05T22:30:35.532Z,99.60
2022-11-05T22:33:07.446Z,99.60
2022-11-05T22:35:39.958Z,99.60
2022-11-05T22:38:12.790Z,99.60
2022-11-05T22:40:45.008Z,99.70
2022-11-05T22:43:16.910Z,99.70
2022-11-05T22:45:48.930Z,99.70
2022-11-05T22:48:20.838Z,99.70
2022-11-05T22:50:52.750Z,99.70
2022-11-05T22:53:24.636Z,99.80
2022-11-05T22:55:56.560Z,99.80
2022-11-05T22:58:28.450Z,99.80
2022-11-05T23:01:01.498Z,99.80
2022-11-05T23:03:34.317Z,99.80
2022-11-05T23:06:48.796Z,99.80
2022-11-05T23:09:45.491Z,99.80
2022-11-05T23:12:29.967Z,99.80
2022-11-05T23:15:05.889Z,99.80
2022-11-05T23:17:56.232Z,99.80
2022-11-05T23:20:46.821Z,99.90
2022-11-05T23:23:37.290Z,99.90
2022-11-05T23:26:28.195Z,99.90
2022-11-05T23:29:00.120Z,99.90
2022-11-05T23:31:50.673Z,99.90
2022-11-05T23:34:22.558Z,99.90
2022-11-05T23:37:13.010Z,99.80
2022-11-05T23:39:45.371Z,99.90
2022-11-05T23:42:36.683Z,99.90
2022-11-05T23:45:28.453Z,99.90
2022-11-05T23:48:17.176Z,99.90
2022-11-05T23:50:59.071Z,99.90
2022-11-05T23:53:34.368Z,99.90
2022-11-05T23:56:11.858Z,99.90
2022-11-05T23:58:44.012Z,99.90
